Time;durP1;ratioP1;P1;durP2;ratioP2;P2;SDS_P1;SDS_P2;PMS_P1;PMS_P2;Temp;Humidity;BMP_temperature;BMP_pressure;BME280_temperature;BME280_humidity;BME280_pressure;Samples;Min_cycle;Max_cycle;Signal;HPM_P1;HPM_P2
2022/07/29 00:02:27;;;;;;;22.42;20.60;;;17.80;99.90;;;;;;5042564;28;20040;-73
2022/07/29 00:04:54;;;;;;;22.30;20.50;;;17.80;99.90;;;;;;5052683;28;20102;-72
2022/07/29 00:07:21;;;;;;;22.15;20.40;;;17.70;99.90;;;;;;5032031;28;20149;-72
2022/07/29 00:09:48;;;;;;;21.67;20.27;;;17.80;99.90;;;;;;5041885;28;20092;-73
2022/07/29 00:12:19;;;;;;;21.88;20.38;;;17.70;99.90;;;;;;5056580;28;20037;-72
2022/07/29 00:14:52;;;;;;;22.40;20.50;;;17.80;99.90;;;;;;5052161;28;20343;-73
2022/07/29 00:17:19;;;;;;;21.90;20.27;;;17.80;99.90;;;;;;5054238;28;20407;-72
2022/07/29 00:19:46;;;;;;;22.63;21.13;;;17.80;99.90;;;;;;5053115;28;20131;-72
2022/07/29 00:22:12;;;;;;;23.15;21.15;;;17.80;99.90;;;;;;5047795;28;20051;-72
2022/07/29 00:24:39;;;;;;;22.48;20.73;;;17.90;99.90;;;;;;5036168;28;20490;-71
2022/07/29 00:27:06;;;;;;;22.85;20.98;;;17.90;99.90;;;;;;5040641;28;20041;-72
2022/07/29 00:29:33;;;;;;;22.67;20.83;;;17.80;99.90;;;;;;5031570;28;20102;-73
2022/07/29 00:32:02;;;;;;;22.30;20.52;;;17.80;99.90;;;;;;5046014;28;20055;-72
2022/07/29 00:37:16;;;;;;;22.65;20.75;;;17.80;99.90;;;;;;5052672;28;20162;-72
2022/07/29 00:39:43;;;;;;;22.05;20.25;;;17.90;99.90;;;;;;5052084;28;20386;-72
2022/07/29 00:42:10;;;;;;;22.52;20.55;;;17.80;99.90;;;;;;5049156;28;20426;-72
2022/07/29 00:44:41;;;;;;;22.42;20.63;;;17.80;99.90;;;;;;5042569;28;20779;-72
2022/07/29 00:47:09;;;;;;;22.27;20.50;;;17.80;99.90;;;;;;5042143;28;20525;-73
2022/07/29 00:49:41;;;;;;;22.90;20.92;;;17.80;99.90;;;;;;5056610;28;20698;-72
2022/07/29 00:52:11;;;;;;;21.75;19.83;;;17.70;99.90;;;;;;5046556;28;20159;-72
2022/07/29 00:54:39;;;;;;;22.67;20.92;;;17.80;99.90;;;;;;5047968;22;20110;-72
2022/07/29 00:57:11;;;;;;;21.90;20.27;;;17.70;99.90;;;;;;5021807;28;20076;-72
2022/07/29 00:59:38;;;;;;;21.92;20.15;;;17.70;99.90;;;;;;5018896;28;20037;-71
2022/07/29 01:02:05;;;;;;;21.48;20.08;;;17.70;99.90;;;;;;5015735;28;20108;-71
2022/07/29 01:04:32;;;;;;;22.10;20.35;;;17.70;99.90;;;;;;5005874;28;20050;-72
2022/07/29 01:07:01;;;;;;;21.30;19.77;;;17.70;99.90;;;;;;5004120;28;20118;-72
2022/07/29 01:09:30;;;;;;;21.90;20.27;;;17.70;99.90;;;;;;5018675;28;20042;-71
2022/07/29 01:12:16;;;;;;;21.80;19.95;;;17.60;99.90;;;;;;5002194;28;20046;-72
2022/07/29 01:14:43;;;;;;;21.33;19.73;;;17.60;99.90;;;;;;5013623;28;20042;-72
2022/07/29 01:17:13;;;;;;;22.38;20.52;;;17.60;99.90;;;;;;4998276;28;20084;-71
2022/07/29 01:19:57;;;;;;;21.52;19.98;;;17.60;99.90;;;;;;5021231;28;20068;-72
2022/07/29 01:22:27;;;;;;;21.37;19.90;;;17.60;99.90;;;;;;4998080;28;21880;-71
2022/07/29 01:25:02;;;;;;;21.48;19.95;;;17.60;99.90;;;;;;5002415;28;20347;-71
2022/07/29 01:27:38;;;;;;;21.50;19.92;;;17.60;99.90;;;;;;5016716;28;20145;-69
2022/07/29 01:30:06;;;;;;;21.48;19.88;;;17.60;99.90;;;;;;5000883;28;20056;-69
2022/07/29 01:32:37;;;;;;;22.42;20.33;;;17.50;99.90;;;;;;4998064;28;20040;-70
2022/07/29 01:35:08;;;;;;;21.38;19.77;;;17.60;99.90;;;;;;4998989;28;20034;-70
2022/07/29 01:37:44;;;;;;;21.08;19.40;;;17.50;99.90;;;;;;5019349;28;20103;-69
2022/07/29 01:40:42;;;;;;;21.63;19.77;;;17.60;99.90;;;;;;4998505;28;20104;-70
2022/07/29 01:43:20;;;;;;;22.45;20.10;;;17.60;99.90;;;;;;4993658;28;20516;-70
2022/07/29 01:46:08;;;;;;;22.13;19.95;;;17.40;99.90;;;;;;5001419;28;20737;-70
2022/07/29 01:48:48;;;;;;;21.88;20.00;;;17.50;99.90;;;;;;4997567;28;20049;-69
2022/07/29 01:51:39;;;;;;;21.10;19.70;;;17.40;99.90;;;;;;5004419;28;20192;-70
2022/07/29 01:54:16;;;;;;;21.17;19.77;;;17.50;99.90;;;;;;4996030;28;20118;-69
2022/07/29 01:56:47;;;;;;;21.42;19.73;;;17.40;99.90;;;;;;5002220;28;20038;-69
2022/07/29 01:59:16;;;;;;;21.02;19.48;;;17.40;99.90;;;;;;4997298;28;20073;-70
2022/07/29 02:01:43;;;;;;;21.52;19.70;;;17.40;99.90;;;;;;5011148;28;20088;-70
2022/07/29 02:04:11;;;;;;;21.13;19.50;;;17.40;99.90;;;;;;4997837;28;20048;-70
2022/07/29 02:07:00;;;;;;;21.90;20.10;;;17.40;99.90;;;;;;4994636;28;20632;-69
2022/07/29 02:09:28;;;;;;;20.55;19.15;;;17.30;99.90;;;;;;5020289;28;20308;-70
2022/07/29 02:11:57;;;;;;;20.55;19.10;;;17.20;99.90;;;;;;5002816;28;20500;-70
2022/07/29 02:14:27;;;;;;;20.92;19.33;;;17.30;99.90;;;;;;5000264;28;20038;-71
2022/07/29 02:16:58;;;;;;;20.73;19.42;;;17.10;99.90;;;;;;5005518;28;20502;-71
2022/07/29 02:19:27;;;;;;;20.98;19.58;;;17.10;99.90;;;;;;4998825;28;20046;-70
2022/07/29 02:21:56;;;;;;;21.85;20.00;;;17.10;99.90;;;;;;5000730;28;20066;-70
2022/07/29 02:24:24;;;;;;;21.33;19.67;;;17.00;99.90;;;;;;4995654;28;20053;-70
2022/07/29 02:26:53;;;;;;;22.25;20.48;;;17.00;99.90;;;;;;4999910;28;20041;-70
2022/07/29 02:29:24;;;;;;;21.60;20.02;;;17.00;99.90;;;;;;5012053;28;20128;-70
2022/07/29 02:31:53;;;;;;;21.75;20.15;;;17.00;99.90;;;;;;4998579;28;20712;-70
2022/07/29 02:34:21;;;;;;;21.83;19.92;;;17.00;99.90;;;;;;4995827;28;20064;-70
2022/07/29 02:36:49;;;;;;;21.40;19.65;;;17.00;99.90;;;;;;5008776;28;20133;-69
2022/07/29 02:39:18;;;;;;;21.05;19.73;;;17.00;99.90;;;;;;5002943;28;20424;-72
2022/07/29 02:41:52;;;;;;;21.25;19.60;;;17.00;99.90;;;;;;5000572;28;20576;-71
2022/07/29 02:44:23;;;;;;;21.45;19.85;;;17.00;99.90;;;;;;5001266;28;20058;-72
2022/07/29 02:46:54;;;;;;;21.63;19.70;;;17.00;99.90;;;;;;5016155;28;20788;-69
2022/07/29 02:49:33;;;;;;;21.88;20.05;;;17.00;99.90;;;;;;5004453;28;20286;-69
2022/07/29 02:52:12;;;;;;;21.48;19.58;;;17.00;99.90;;;;;;5016425;28;20041;-71
2022/07/29 02:54:44;;;;;;;21.45;19.67;;;17.00;99.90;;;;;;4997913;28;20410;-70
2022/07/29 02:57:32;;;;;;;20.83;19.15;;;17.00;99.90;;;;;;5001714;28;20076;-69
2022/07/29 03:00:04;;;;;;;22.10;20.23;;;17.00;99.90;;;;;;4998582;28;20526;-70
2022/07/29 03:02:38;;;;;;;21.67;19.98;;;17.00;99.90;;;;;;4998971;28;20677;-69
2022/07/29 03:05:08;;;;;;;20.65;19.25;;;16.90;99.90;;;;;;5014728;28;20046;-70
2022/07/29 03:07:38;;;;;;;21.40;19.80;;;16.90;99.90;;;;;;5001919;28;20048;-70
2022/07/29 03:10:08;;;;;;;22.35;20.65;;;16.90;99.90;;;;;;4998783;28;20077;-69
2022/07/29 03:12:41;;;;;;;22.00;20.20;;;16.80;99.90;;;;;;5014633;28;20515;-70
2022/07/29 03:15:09;;;;;;;21.92;20.20;;;16.90;99.90;;;;;;5003955;28;20427;-69
2022/07/29 03:17:37;;;;;;;21.10;19.80;;;16.90;99.90;;;;;;5016551;28;20049;-70
2022/07/29 03:20:06;;;;;;;21.90;20.27;;;16.90;99.90;;;;;;4997079;28;20133;-72
2022/07/29 03:22:33;;;;;;;22.52;20.75;;;16.90;99.90;;;;;;5001725;28;20041;-72
2022/07/29 03:25:08;;;;;;;23.17;21.17;;;16.90;99.90;;;;;;4994777;28;20497;-71
2022/07/29 03:27:35;;;;;;;;;;;16.90;99.90;;;;;;5014467;28;20041;-71
2022/07/29 03:30:03;;;;;;;22.80;21.10;;;16.90;99.90;;;;;;5012653;28;19945;-71
2022/07/29 03:32:34;;;;;;;22.27;20.27;;;17.00;99.90;;;;;;4996223;28;20521;-69
2022/07/29 03:35:01;;;;;;;21.85;20.23;;;17.00;99.90;;;;;;4995545;28;20042;-70
2022/07/29 03:37:30;;;;;;;21.63;20.13;;;17.00;99.90;;;;;;4999132;28;20068;-70
2022/07/29 03:39:57;;;;;;;22.05;20.23;;;17.00;99.90;;;;;;5005291;28;20042;-70
2022/07/29 03:42:28;;;;;;;22.08;20.30;;;17.10;99.90;;;;;;4997575;28;20042;-69
2022/07/29 03:45:05;;;;;;;21.77;19.83;;;17.10;99.90;;;;;;4995571;28;20084;-71
2022/07/29 03:47:34;;;;;;;22.08;20.58;;;17.10;99.90;;;;;;5017627;28;20431;-72
2022/07/29 03:50:19;;;;;;;;;;;17.10;99.90;;;;;;4999529;28;20479;-70
2022/07/29 03:52:47;;;;;;;22.40;20.45;;;17.10;99.90;;;;;;5015547;28;19928;-72
2022/07/29 03:55:14;;;;;;;23.10;21.35;;;17.10;99.90;;;;;;5001358;28;20566;-72
2022/07/29 03:57:44;;;;;;;22.95;21.00;;;17.10;99.90;;;;;;5002691;28;20053;-72
2022/07/29 04:00:11;;;;;;;22.90;20.90;;;17.10;99.90;;;;;;4996426;28;20057;-71
2022/07/29 04:02:39;;;;;;;22.65;20.92;;;17.10;99.90;;;;;;5013648;28;20141;-72
2022/07/29 04:05:11;;;;;;;23.67;21.52;;;17.10;99.90;;;;;;5014976;28;20105;-71
2022/07/29 04:07:38;;;;;;;25.10;23.20;;;17.20;99.90;;;;;;4984100;28;20045;-69
2022/07/29 04:10:06;;;;;;;23.20;21.42;;;17.30;99.90;;;;;;5000713;28;20508;-71
2022/07/29 04:12:32;;;;;;;23.52;21.50;;;17.20;99.90;;;;;;4983488;28;20050;-69
2022/07/29 04:14:59;;;;;;;22.67;20.92;;;17.20;99.90;;;;;;5005776;28;20034;-69
2022/07/29 04:17:27;;;;;;;22.95;21.30;;;17.20;99.90;;;;;;5015565;28;20093;-70
2022/07/29 04:19:53;;;;;;;22.83;21.20;;;17.20;99.90;;;;;;5001424;28;20095;-69
2022/07/29 04:22:21;;;;;;;22.33;20.65;;;17.20;99.90;;;;;;5000204;28;20436;-70
2022/07/29 04:24:48;;;;;;;22.58;21.10;;;17.30;99.90;;;;;;5013085;28;20053;-69
2022/07/29 04:27:15;;;;;;;22.77;21.08;;;17.20;99.90;;;;;;4996219;28;20046;-70
2022/07/29 04:29:42;;;;;;;24.25;22.73;;;17.20;99.90;;;;;;5002216;28;20083;-72
2022/07/29 04:32:26;;;;;;;26.15;24.10;;;17.20;99.90;;;;;;5010080;28;20046;-73
2022/07/29 04:34:53;;;;;;;25.20;23.42;;;17.20;99.90;;;;;;5013554;28;20053;-72
2022/07/29 04:37:20;;;;;;;24.85;23.05;;;17.20;99.90;;;;;;4997358;28;20103;-72
2022/07/29 04:39:47;;;;;;;24.98;23.27;;;17.30;99.90;;;;;;5000850;28;20128;-69
2022/07/29 04:42:14;;;;;;;25.73;23.92;;;17.20;99.90;;;;;;5000300;28;20495;-70
2022/07/29 04:44:43;;;;;;;25.33;23.20;;;17.30;99.90;;;;;;5014896;28;20044;-70
2022/07/29 04:47:09;;;;;;;25.08;23.30;;;17.30;99.90;;;;;;4987308;28;20476;-70
2022/07/29 04:49:39;;;;;;;26.65;24.00;;;17.30;99.90;;;;;;5005645;28;21054;-70
2022/07/29 04:52:06;;;;;;;24.77;23.05;;;17.40;99.90;;;;;;4992515;28;20105;-71
2022/07/29 04:54:33;;;;;;;24.67;22.98;;;17.40;99.90;;;;;;4992944;28;20103;-70
2022/07/29 04:57:00;;;;;;;24.38;22.77;;;17.40;99.90;;;;;;4999919;28;20034;-69
2022/07/29 04:59:27;;;;;;;24.65;22.52;;;17.30;99.90;;;;;;4998609;28;20068;-70
2022/07/29 05:01:53;;;;;;;25.52;23.50;;;17.20;99.90;;;;;;4991281;28;20057;-69
2022/07/29 05:04:20;;;;;;;24.30;22.60;;;17.10;99.90;;;;;;4993637;28;20080;-69
2022/07/29 05:06:47;;;;;;;24.20;22.40;;;17.20;99.90;;;;;;4999363;28;20050;-69
2022/07/29 05:09:14;;;;;;;24.48;22.60;;;17.20;99.90;;;;;;5011515;28;20038;-70
2022/07/29 05:11:41;;;;;;;23.60;22.20;;;17.20;99.90;;;;;;5017130;28;20049;-70
2022/07/29 05:14:08;;;;;;;23.35;21.65;;;17.20;99.90;;;;;;4995985;28;20049;-69
2022/07/29 05:16:35;;;;;;;23.08;21.52;;;17.20;99.90;;;;;;4993816;28;20030;-70
2022/07/29 05:19:02;;;;;;;23.52;21.88;;;17.20;99.90;;;;;;4998116;28;20693;-70
2022/07/29 05:21:29;;;;;;;23.73;21.67;;;17.10;99.90;;;;;;4999743;28;20622;-70
2022/07/29 05:23:56;;;;;;;23.40;21.80;;;17.00;99.90;;;;;;4995997;28;20042;-70
2022/07/29 05:26:23;;;;;;;23.27;21.88;;;16.90;99.90;;;;;;4996341;28;20656;-70
2022/07/29 05:28:50;;;;;;;23.75;22.05;;;16.90;99.90;;;;;;5003515;28;20049;-70
2022/07/29 05:31:17;;;;;;;23.75;22.13;;;16.90;99.90;;;;;;4996710;28;20100;-68
2022/07/29 05:33:44;;;;;;;23.85;22.02;;;16.80;99.90;;;;;;4995821;28;20046;-71
2022/07/29 05:36:11;;;;;;;24.23;22.23;;;16.90;99.90;;;;;;4990443;28;20074;-70
2022/07/29 05:38:38;;;;;;;25.25;23.33;;;16.90;99.90;;;;;;4990183;28;20111;-70
2022/07/29 05:41:05;;;;;;;24.98;22.88;;;17.00;99.90;;;;;;4993091;28;20065;-70
2022/07/29 05:43:32;;;;;;;25.40;23.48;;;17.00;99.90;;;;;;4992301;28;20475;-70
2022/07/29 05:45:59;;;;;;;25.35;23.17;;;17.10;99.90;;;;;;5002619;28;20041;-70
2022/07/29 05:48:26;;;;;;;24.20;22.58;;;17.10;99.90;;;;;;5012472;28;20112;-70
2022/07/29 05:50:53;;;;;;;25.67;23.60;;;16.90;99.90;;;;;;4997529;28;20042;-71
2022/07/29 05:53:20;;;;;;;26.00;24.15;;;16.90;99.90;;;;;;4992756;28;20077;-69
2022/07/29 05:55:48;;;;;;;24.23;22.60;;;16.80;99.90;;;;;;4998106;28;20033;-71
2022/07/29 05:58:15;;;;;;;25.63;23.27;;;16.70;99.90;;;;;;4999700;28;20097;-73
2022/07/29 06:00:42;;;;;;;25.75;23.88;;;16.70;99.90;;;;;;4997729;28;20038;-69
2022/07/29 06:03:08;;;;;;;24.50;22.77;;;16.60;99.90;;;;;;5001588;28;20466;-69
2022/07/29 06:05:35;;;;;;;25.45;23.67;;;16.40;99.90;;;;;;5001502;28;20041;-70
2022/07/29 06:08:02;;;;;;;25.60;23.65;;;16.50;99.90;;;;;;4996150;28;20243;-70
2022/07/29 06:10:29;;;;;;;24.30;22.60;;;16.50;99.90;;;;;;4997584;28;20057;-71
2022/07/29 06:12:56;;;;;;;24.98;23.27;;;16.50;99.90;;;;;;5004773;28;20045;-70
2022/07/29 06:15:23;;;;;;;25.42;23.65;;;16.60;99.90;;;;;;5003218;28;20112;-70
2022/07/29 06:17:49;;;;;;;25.42;23.73;;;16.60;99.90;;;;;;5015446;28;20045;-70
2022/07/29 06:20:29;;;;;;;24.80;23.00;;;16.60;99.90;;;;;;5001290;28;20120;-71
2022/07/29 06:22:57;;;;;;;24.73;23.10;;;16.50;99.90;;;;;;4996730;28;20136;-70
2022/07/29 06:25:23;;;;;;;24.83;23.15;;;16.50;99.90;;;;;;4993254;28;20173;-70
2022/07/29 06:27:52;;;;;;;24.60;23.00;;;16.40;99.90;;;;;;5001587;28;20042;-70
2022/07/29 06:30:18;;;;;;;24.88;23.27;;;16.40;99.90;;;;;;5002124;28;20377;-70
2022/07/29 06:32:45;;;;;;;25.45;23.33;;;16.40;99.90;;;;;;5021005;28;20049;-70
2022/07/29 06:35:12;;;;;;;25.77;24.08;;;16.40;99.90;;;;;;5003013;28;20046;-69
2022/07/29 06:37:59;;;;;;;25.75;23.90;;;16.40;99.90;;;;;;4993851;28;20459;-70
2022/07/29 06:43:11;;;;;;;25.55;23.88;;;16.30;99.90;;;;;;4996663;28;20086;-70
2022/07/29 06:45:40;;;;;;;24.90;23.20;;;16.30;99.90;;;;;;4994668;28;20069;-70
2022/07/29 06:48:08;;;;;;;26.00;24.08;;;16.30;99.90;;;;;;5004800;28;20045;-70
2022/07/29 06:50:36;;;;;;;25.98;24.27;;;16.30;99.90;;;;;;4997532;28;20119;-70
2022/07/29 06:53:03;;;;;;;24.85;23.17;;;16.30;99.90;;;;;;5000175;28;20046;-71
2022/07/29 06:55:30;;;;;;;24.23;22.77;;;16.30;99.90;;;;;;5062156;22;20049;-73
2022/07/29 06:57:57;;;;;;;24.45;22.90;;;16.40;99.90;;;;;;5044224;28;20101;-72
2022/07/29 07:00:23;;;;;;;24.75;22.92;;;16.50;99.90;;;;;;5033461;28;20071;-73
2022/07/29 07:02:50;;;;;;;24.52;22.83;;;16.60;99.90;;;;;;5040571;28;20131;-77
2022/07/29 07:05:17;;;;;;;24.38;22.60;;;16.70;99.90;;;;;;5029493;28;20671;-76
2022/07/29 07:07:44;;;;;;;24.85;22.77;;;16.80;99.90;;;;;;5025308;28;20056;-75
2022/07/29 07:10:11;;;;;;;26.30;24.05;;;16.90;99.90;;;;;;5024094;28;20069;-74
2022/07/29 07:12:38;;;;;;;24.70;23.00;;;17.00;99.90;;;;;;5028157;28;20071;-74
2022/07/29 07:15:05;;;;;;;24.98;23.38;;;16.90;99.90;;;;;;5022828;28;20123;-74
2022/07/29 07:17:32;;;;;;;26.33;24.13;;;16.80;99.90;;;;;;5025318;28;20053;-74
2022/07/29 07:19:59;;;;;;;26.13;24.17;;;16.90;99.90;;;;;;5027557;28;20069;-74
2022/07/29 07:22:25;;;;;;;26.13;24.35;;;17.00;99.90;;;;;;5023888;28;20153;-74
2022/07/29 07:24:52;;;;;;;25.55;23.85;;;17.20;99.90;;;;;;5023988;28;20132;-74
2022/07/29 07:27:19;;;;;;;26.10;24.17;;;17.20;99.90;;;;;;5024015;28;20491;-74
2022/07/29 07:29:45;;;;;;;26.13;24.27;;;17.20;99.90;;;;;;5023050;28;20085;-74
2022/07/29 07:32:13;;;;;;;24.98;23.17;;;17.30;99.90;;;;;;5029112;28;20056;-74
2022/07/29 07:34:40;;;;;;;24.70;23.02;;;17.20;99.90;;;;;;5022512;28;20037;-73
2022/07/29 07:37:07;;;;;;;25.92;23.85;;;17.30;99.90;;;;;;5027317;28;20527;-73
2022/07/29 07:39:33;;;;;;;25.75;23.73;;;17.40;99.90;;;;;;5020749;28;20454;-74
2022/07/29 07:42:00;;;;;;;25.67;23.50;;;17.60;99.90;;;;;;5024928;28;20037;-74
2022/07/29 07:44:27;;;;;;;24.88;23.15;;;17.80;99.90;;;;;;5024991;28;20049;-73
2022/07/29 07:46:53;;;;;;;25.38;23.88;;;17.70;99.90;;;;;;5023323;28;20160;-73
2022/07/29 07:49:20;;;;;;;25.88;24.10;;;17.80;99.90;;;;;;5023726;28;20578;-74
2022/07/29 07:51:47;;;;;;;25.65;23.80;;;17.70;99.90;;;;;;5027143;28;20048;-73
2022/07/29 07:54:16;;;;;;;26.48;24.38;;;17.60;99.90;;;;;;5022076;28;20032;-74
2022/07/29 07:56:48;;;;;;;24.95;23.45;;;17.70;99.90;;;;;;5021733;28;20136;-74
2022/07/29 07:59:19;;;;;;;25.55;23.48;;;17.60;99.90;;;;;;5003638;28;20597;-74
2022/07/29 08:01:45;;;;;;;25.63;23.75;;;17.50;99.90;;;;;;5027796;28;20105;-73
2022/07/29 08:04:21;;;;;;;25.25;23.58;;;17.40;99.90;;;;;;5027104;28;20091;-74
2022/07/29 08:06:55;;;;;;;25.58;23.58;;;17.50;99.90;;;;;;5020691;28;20042;-74
2022/07/29 08:09:22;;;;;;;25.60;23.58;;;17.50;99.90;;;;;;5026622;28;20057;-74
2022/07/29 08:11:58;;;;;;;25.27;23.15;;;17.50;99.90;;;;;;5028840;28;20072;-74
2022/07/29 08:14:25;;;;;;;25.83;23.90;;;17.50;99.90;;;;;;5034873;28;20098;-74
2022/07/29 08:16:52;;;;;;;24.92;23.25;;;17.60;99.90;;;;;;5038144;28;20045;-74
2022/07/29 08:19:18;;;;;;;26.10;24.13;;;17.80;99.90;;;;;;5034654;28;20041;-75
2022/07/29 08:21:45;;;;;;;24.23;22.52;;;18.00;99.90;;;;;;5024790;28;20124;-74
2022/07/29 08:26:57;;;;;;;;;;;18.30;99.90;;;;;;5019486;28;20123;-74
2022/07/29 08:29:24;;;;;;;24.58;22.83;;;18.50;99.90;;;;;;5021695;28;19971;-74
2022/07/29 08:31:51;;;;;;;24.50;22.75;;;18.50;99.90;;;;;;5026571;28;20641;-74
2022/07/29 08:34:18;;;;;;;24.55;22.88;;;18.60;99.90;;;;;;5017137;28;20049;-74
2022/07/29 08:36:52;;;;;;;24.75;23.00;;;18.90;99.90;;;;;;5027423;28;20045;-74
2022/07/29 08:39:20;;;;;;;23.65;22.30;;;19.30;99.90;;;;;;5027583;28;20045;-74
2022/07/29 08:41:47;;;;;;;25.98;24.25;;;19.50;99.90;;;;;;5019274;28;20102;-75
2022/07/29 08:44:23;;;;;;;26.27;24.13;;;19.40;99.90;;;;;;5019461;28;20045;-75
2022/07/29 08:46:57;;;;;;;26.00;24.20;;;19.60;99.90;;;;;;5025817;28;20098;-75
2022/07/29 08:49:23;;;;;;;25.67;23.92;;;19.80;99.90;;;;;;5029562;28;20056;-74
2022/07/29 08:51:51;;;;;;;27.02;25.15;;;20.20;99.90;;;;;;5026448;28;20053;-74
2022/07/29 08:54:18;;;;;;;28.13;26.23;;;20.50;99.90;;;;;;5020116;28;20053;-74
2022/07/29 08:56:49;;;;;;;28.08;25.73;;;20.10;99.90;;;;;;5024279;28;20096;-74
2022/07/29 08:59:20;;;;;;;26.25;24.73;;;20.00;99.90;;;;;;5029540;28;20048;-75
2022/07/29 09:01:52;;;;;;;28.02;26.17;;;20.10;99.90;;;;;;5020590;28;20188;-74
2022/07/29 09:04:20;;;;;;;27.85;25.92;;;20.20;99.90;;;;;;5015666;28;20512;-75
2022/07/29 09:06:51;;;;;;;25.52;24.02;;;20.10;99.90;;;;;;5033742;28;20045;-74
2022/07/29 09:09:18;;;;;;;24.20;22.42;;;19.90;99.90;;;;;;5025732;28;20041;-74
2022/07/29 09:11:44;;;;;;;25.08;23.27;;;19.90;99.90;;;;;;5021471;28;20673;-74
2022/07/29 09:14:13;;;;;;;28.08;25.95;;;19.80;99.90;;;;;;5036267;28;20047;-74
2022/07/29 09:16:53;;;;;;;26.42;24.63;;;19.80;99.90;;;;;;5027629;28;20068;-74
2022/07/29 09:19:30;;;;;;;26.27;24.30;;;20.00;99.90;;;;;;5020245;28;20046;-75
2022/07/29 09:21:59;;;;;;;25.70;23.98;;;19.80;99.90;;;;;;5017340;28;20038;-74
2022/07/29 09:24:34;;;;;;;26.95;25.00;;;19.90;99.90;;;;;;5016045;28;20611;-74
2022/07/29 09:27:01;;;;;;;25.63;23.80;;;20.30;99.90;;;;;;5025683;28;20048;-75
2022/07/29 09:29:29;;;;;;;25.65;23.63;;;20.40;99.90;;;;;;5020483;28;20099;-74
2022/07/29 09:32:07;;;;;;;25.17;23.30;;;20.20;99.90;;;;;;5024995;28;20041;-74
2022/07/29 09:34:34;;;;;;;25.42;23.83;;;20.10;99.90;;;;;;5019101;28;20839;-74
2022/07/29 09:37:01;;;;;;;25.35;23.73;;;20.10;99.90;;;;;;5024687;28;20110;-73
2022/07/29 09:39:31;;;;;;;24.98;23.13;;;20.40;99.90;;;;;;5016004;28;20104;-74
2022/07/29 09:42:01;;;;;;;25.20;23.60;;;20.70;99.90;;;;;;5028234;28;20038;-74
2022/07/29 09:44:45;;;;;;;26.70;24.50;;;20.90;99.90;;;;;;5024492;28;20053;-75
2022/07/29 09:47:12;;;;;;;26.52;25.02;;;21.30;99.90;;;;;;5017852;28;20495;-74
2022/07/29 09:49:54;;;;;;;27.45;25.67;;;20.60;99.90;;;;;;5030677;28;20139;-74
2022/07/29 09:52:21;;;;;;;24.35;22.67;;;20.50;99.90;;;;;;5048498;28;20056;-74
2022/07/29 09:54:48;;;;;;;26.13;24.42;;;20.50;99.90;;;;;;5024523;28;20518;-74
2022/07/29 09:57:23;;;;;;;26.77;24.98;;;20.50;99.90;;;;;;5033367;28;20194;-75
2022/07/29 10:00:09;;;;;;;27.60;25.40;;;20.40;99.90;;;;;;5019716;28;20523;-74
2022/07/29 10:02:41;;;;;;;28.20;26.27;;;20.10;99.90;;;;;;5023004;28;20518;-74
2022/07/29 10:05:18;;;;;;;28.92;27.27;;;20.40;99.90;;;;;;5026228;28;20107;-74
2022/07/29 10:07:53;;;;;;;27.75;25.95;;;20.80;99.90;;;;;;5034881;28;20099;-74
2022/07/29 10:10:29;;;;;;;29.15;27.23;;;21.10;99.90;;;;;;5027826;28;20037;-74
2022/07/29 10:12:59;;;;;;;29.60;27.45;;;21.90;99.90;;;;;;5030426;28;20099;-74
2022/07/29 10:15:40;;;;;;;30.05;28.00;;;22.80;99.90;;;;;;5019521;28;20056;-74
2022/07/29 10:18:08;;;;;;;28.25;26.55;;;22.80;99.90;;;;;;5024649;28;20041;-74
2022/07/29 10:20:35;;;;;;;27.40;25.83;;;22.20;99.90;;;;;;5025020;28;20542;-74
2022/07/29 10:23:02;;;;;;;28.00;26.17;;;22.20;99.90;;;;;;5030406;28;20044;-74
2022/07/29 10:25:30;;;;;;;27.75;25.90;;;22.30;99.90;;;;;;5028381;28;20059;-74
2022/07/29 10:27:57;;;;;;;27.45;25.63;;;22.50;99.90;;;;;;5022271;28;20081;-74
2022/07/29 10:30:25;;;;;;;27.33;25.77;;;22.40;99.90;;;;;;5032930;28;20044;-75
2022/07/29 10:33:25;;;;;;;27.60;25.92;;;22.10;99.90;;;;;;5017567;28;20045;-74
2022/07/29 10:36:04;;;;;;;26.30;24.60;;;22.50;99.90;;;;;;5020216;28;20050;-74
2022/07/29 10:38:42;;;;;;;26.73;24.85;;;22.10;99.90;;;;;;5027361;28;20494;-74
2022/07/29 10:41:46;;;;;;;25.98;24.13;;;22.20;99.90;;;;;;5028037;28;20755;-74
2022/07/29 10:44:17;;;;;;;26.42;24.52;;;22.10;99.90;;;;;;5028032;28;20045;-74
2022/07/29 10:46:49;;;;;;;27.30;25.58;;;22.10;99.90;;;;;;5026086;28;20045;-76
2022/07/29 10:49:22;;;;;;;27.65;25.85;;;21.90;99.90;;;;;;5037435;28;20533;-74
2022/07/29 10:51:57;;;;;;;28.42;26.05;;;22.00;99.90;;;;;;5022635;28;20562;-74
2022/07/29 10:54:44;;;;;;;27.40;25.65;;;22.20;99.90;;;;;;5024410;28;20099;-73
2022/07/29 10:57:15;;;;;;;28.02;26.27;;;22.50;99.90;;;;;;5032844;28;20067;-74
2022/07/29 10:59:45;;;;;;;29.13;27.13;;;23.00;99.90;;;;;;5020926;28;20116;-74
2022/07/29 11:02:54;;;;;;;27.33;25.40;;;23.10;99.90;;;;;;5024231;28;20057;-73
2022/07/29 11:05:23;;;;;;;28.52;26.52;;;22.90;99.90;;;;;;4936781;28;20043;-73
2022/07/29 11:08:13;;;;;;;28.63;26.92;;;22.20;99.90;;;;;;4958263;28;20101;-74
2022/07/29 11:11:31;;;;;;;29.92;27.88;;;22.10;99.90;;;;;;4998010;28;20790;-74
2022/07/29 11:13:58;;;;;;;28.13;26.08;;;21.90;99.90;;;;;;5019289;28;20443;-74
2022/07/29 11:16:25;;;;;;;27.80;25.88;;;22.30;99.90;;;;;;5021674;28;20136;-73
2022/07/29 11:19:13;;;;;;;26.95;25.02;;;22.20;99.90;;;;;;5020917;28;20580;-74
2022/07/29 11:21:43;;;;;;;27.27;25.38;;;22.30;99.90;;;;;;5020762;28;20049;-73
2022/07/29 11:24:34;;;;;;;26.63;24.73;;;22.10;99.90;;;;;;5025730;28;20077;-74
2022/07/29 11:27:09;;;;;;;26.85;24.70;;;22.00;99.90;;;;;;5035216;28;20055;-73
2022/07/29 11:29:40;;;;;;;26.13;24.50;;;22.60;99.90;;;;;;5030722;28;20061;-73
2022/07/29 11:32:11;;;;;;;27.13;25.13;;;22.50;99.90;;;;;;5024882;28;20119;-75
2022/07/29 11:34:44;;;;;;;27.30;25.55;;;22.80;99.90;;;;;;5014113;28;20136;-74
2022/07/29 11:37:14;;;;;;;27.63;25.63;;;22.70;99.90;;;;;;5033769;28;20049;-74
2022/07/29 11:39:46;;;;;;;27.77;25.77;;;22.70;99.90;;;;;;5027182;28;20064;-74
2022/07/29 11:42:19;;;;;;;27.50;25.33;;;22.70;99.90;;;;;;5026289;28;20041;-76
2022/07/29 11:45:00;;;;;;;27.33;25.63;;;22.60;99.90;;;;;;5026798;28;20045;-74
2022/07/29 11:47:47;;;;;;;29.35;27.20;;;22.80;99.90;;;;;;5017370;28;20131;-74
2022/07/29 11:50:27;;;;;;;31.35;29.38;;;22.90;99.90;;;;;;5034372;28;20645;-74
2022/07/29 11:52:54;;;;;;;30.65;28.55;;;23.10;99.90;;;;;;5008208;28;20038;-75
2022/07/29 11:55:23;;;;;;;28.15;26.42;;;23.20;99.90;;;;;;5024346;28;20156;-74
2022/07/29 11:57:59;;;;;;;28.40;26.70;;;23.80;99.90;;;;;;5023569;28;20129;-74
2022/07/29 12:00:35;;;;;;;28.70;26.95;;;23.70;99.90;;;;;;5024361;28;20549;-74
2022/07/29 12:03:05;;;;;;;29.45;27.55;;;23.70;99.90;;;;;;5029661;28;20048;-74
2022/07/29 12:05:33;;;;;;;28.70;26.95;;;23.90;99.90;;;;;;5020263;28;20049;-74
2022/07/29 12:08:19;;;;;;;28.80;26.65;;;23.90;99.90;;;;;;5026457;28;20041;-74
2022/07/29 12:10:47;;;;;;;30.05;28.15;;;23.80;99.90;;;;;;5027741;28;20523;-74
2022/07/29 12:13:18;;;;;;;32.72;30.40;;;24.40;99.90;;;;;;5021481;28;20037;-74
2022/07/29 12:15:53;;;;;;;31.02;28.92;;;24.30;99.90;;;;;;5027592;28;20075;-74
2022/07/29 12:18:21;;;;;;;30.65;28.55;;;24.70;99.90;;;;;;5027951;28;20049;-74
2022/07/29 12:20:57;;;;;;;29.40;27.60;;;24.40;99.90;;;;;;5035606;28;20049;-74
2022/07/29 12:23:24;;;;;;;28.85;26.95;;;24.00;99.90;;;;;;5037085;28;20044;-73
2022/07/29 12:25:55;;;;;;;29.15;27.20;;;24.10;99.90;;;;;;5029540;28;20498;-73
2022/07/29 12:28:22;;;;;;;31.02;28.63;;;24.30;99.90;;;;;;5017280;28;20068;-73
2022/07/29 12:30:53;;;;;;;31.27;29.15;;;24.60;99.90;;;;;;5029307;28;20129;-73
2022/07/29 12:33:27;;;;;;;27.60;25.85;;;24.80;99.90;;;;;;5037113;28;20045;-73
2022/07/29 12:35:57;;;;;;;30.45;28.23;;;24.60;99.90;;;;;;5023633;28;20492;-74
2022/07/29 12:38:36;;;;;;;30.67;28.85;;;25.00;99.90;;;;;;5031521;28;20060;-74
2022/07/29 12:41:03;;;;;;;30.23;28.25;;;25.40;99.90;;;;;;5029593;28;20157;-74
2022/07/29 12:43:31;;;;;;;30.30;28.38;;;25.40;99.90;;;;;;5034984;28;20048;-74
2022/07/29 12:46:14;;;;;;;30.20;28.25;;;25.30;99.90;;;;;;5031377;28;20537;-74
2022/07/29 12:48:42;;;;;;;30.60;28.15;;;25.50;99.90;;;;;;5035703;28;20049;-74
2022/07/29 12:51:11;;;;;;;30.27;27.92;;;25.90;99.90;;;;;;5017097;28;20072;-74
2022/07/29 12:53:38;;;;;;;30.50;28.63;;;26.10;99.90;;;;;;5029807;28;20461;-74
2022/07/29 12:56:16;;;;;;;30.85;28.80;;;25.80;99.90;;;;;;5066601;22;20047;-73